createdAt,value
2024-02-28T00:01:05.240Z,24.65
2024-02-28T00:03:33.300Z,23.98
2024-02-28T00:06:01.107Z,24.13
2024-02-28T00:08:28.800Z,24.15
2024-02-28T00:10:56.622Z,25.25
2024-02-28T00:13:25.592Z,25.75
2024-02-28T00:15:53.577Z,24.70
2024-02-28T00:18:22.761Z,24.10
2024-02-28T00:20:51.724Z,24.65
2024-02-28T00:23:19.430Z,24.33
2024-02-28T00:25:47.157Z,24.88
2024-02-28T00:28:15.020Z,23.88
2024-02-28T00:30:42.909Z,25.00
2024-02-28T00:33:10.751Z,23.92
2024-02-28T00:35:43.180Z,23.52
2024-02-28T00:38:11.090Z,25.20
2024-02-28T00:40:39.366Z,23.70
2024-02-28T00:43:07.176Z,24.30
2024-02-28T00:45:35.019Z,25.70
2024-02-28T00:48:02.787Z,24.60
2024-02-28T00:50:30.520Z,24.92
2024-02-28T00:52:59.685Z,24.52
2024-02-28T00:55:27.749Z,24.48
2024-02-28T00:57:55.506Z,24.23
2024-02-28T01:00:24.851Z,24.70
2024-02-28T01:02:52.617Z,25.30
2024-02-28T01:05:20.437Z,22.98
2024-02-28T01:07:48.185Z,24.48
2024-02-28T01:10:17.514Z,23.63
2024-02-28T01:12:45.283Z,24.83
2024-02-28T01:15:13.090Z,23.30
2024-02-28T01:17:41.122Z,23.98
2024-02-28T01:20:09.804Z,24.50
2024-02-28T01:22:37.704Z,24.17
2024-02-28T01:25:05.708Z,24.13
2024-02-28T01:27:34.893Z,23.52
2024-02-28T01:48:59.187Z,23.83
2024-02-28T01:51:29.096Z,22.50
2024-02-28T01:53:57.434Z,22.50
2024-02-28T01:56:26.425Z,22.73
2024-02-28T01:58:56.187Z,24.83
2024-02-28T02:01:24.056Z,23.52
2024-02-28T02:03:51.904Z,23.70
2024-02-28T02:06:21.084Z,24.20
2024-02-28T02:08:49.875Z,23.52
2024-02-28T02:11:20.069Z,24.45
2024-02-28T02:13:51.837Z,23.33
2024-02-28T02:16:20.379Z,24.70
2024-02-28T02:18:49.454Z,22.73
2024-02-28T02:21:22.251Z,25.15
2024-02-28T02:23:51.595Z,23.50
2024-02-28T02:26:19.255Z,24.08
2024-02-28T02:28:46.930Z,24.02
2024-02-28T02:31:15.776Z,23.80
2024-02-28T02:33:43.539Z,22.42
2024-02-28T02:36:11.343Z,23.35
2024-02-28T02:38:39.009Z,22.73
2024-02-28T02:41:08.078Z,24.85
2024-02-28T02:43:35.765Z,23.42
2024-02-28T02:46:03.461Z,23.55
2024-02-28T02:48:31.043Z,23.92
2024-02-28T02:50:58.697Z,24.83
2024-02-28T02:53:26.322Z,22.80
2024-02-28T02:55:55.099Z,22.55
2024-02-28T02:58:24.025Z,25.13
2024-02-28T03:00:51.898Z,24.67
2024-02-28T03:03:19.607Z,24.48
2024-02-28T03:05:47.250Z,23.50
2024-02-28T03:08:14.989Z,23.35
2024-02-28T03:10:42.710Z,24.40
2024-02-28T03:13:10.457Z,22.73
2024-02-28T03:15:39.608Z,23.52
2024-02-28T03:18:07.380Z,24.85
2024-02-28T03:20:35.495Z,24.10
2024-02-28T03:23:03.659Z,24.33
2024-02-28T03:25:31.782Z,22.90
2024-02-28T03:28:00.527Z,24.55
2024-02-28T03:30:28.176Z,23.75
2024-02-28T03:32:57.179Z,23.98
2024-02-28T03:35:24.951Z,24.42
2024-02-28T03:37:52.568Z,24.30
2024-02-28T03:40:20.221Z,24.60
2024-02-28T03:42:48.096Z,23.75
2024-02-28T03:45:15.973Z,24.90
2024-02-28T03:47:43.736Z,23.60
2024-02-28T03:50:12.800Z,25.42
2024-02-28T03:52:41.162Z,23.80
2024-02-28T03:55:09.766Z,24.90
2024-02-28T03:57:37.493Z,23.90
2024-02-28T04:00:06.536Z,24.13
2024-02-28T04:02:34.442Z,24.52
2024-02-28T04:05:02.113Z,24.05
2024-02-28T04:07:31.099Z,23.08
2024-02-28T04:09:58.813Z,23.58
2024-02-28T04:12:26.626Z,23.80
2024-02-28T04:14:54.577Z,23.13
2024-02-28T04:17:22.313Z,23.25
2024-02-28T04:19:50.079Z,22.83
2024-02-28T04:22:17.691Z,22.70
2024-02-28T04:24:46.846Z,23.73
2024-02-28T04:27:14.605Z,22.30
2024-02-28T04:29:42.280Z,22.08
2024-02-28T04:32:09.963Z,23.55
2024-02-28T04:34:38.727Z,22.52
2024-02-28T04:37:06.679Z,23.27
2024-02-28T04:39:34.370Z,21.83
2024-02-28T04:42:03.480Z,21.83
2024-02-28T04:44:31.209Z,21.52
2024-02-28T04:46:58.898Z,21.52
2024-02-28T04:49:27.083Z,22.75
2024-02-28T04:51:55.031Z,21.95
2024-02-28T04:54:22.785Z,22.40
2024-02-28T04:56:52.194Z,21.08
2024-02-28T04:59:21.174Z,21.95
2024-02-28T05:01:49.327Z,21.80
2024-02-28T05:04:17.002Z,21.38
2024-02-28T05:06:44.709Z,21.90
2024-02-28T05:09:12.408Z,22.15
2024-02-28T05:11:40.091Z,22.33
2024-02-28T05:14:07.746Z,22.50
2024-02-28T05:16:36.707Z,20.95
2024-02-28T05:19:05.646Z,22.80
2024-02-28T05:21:41.288Z,21.70
2024-02-28T05:24:09.163Z,21.15
2024-02-28T05:26:37.112Z,21.42
2024-02-28T05:29:06.025Z,21.13
2024-02-28T05:31:34.309Z,23.00
2024-02-28T05:34:03.647Z,22.35
2024-02-28T05:36:32.543Z,23.67
2024-02-28T05:39:02.182Z,22.42
2024-02-28T05:41:30.427Z,23.23
2024-02-28T05:43:58.170Z,23.33
2024-02-28T05:46:25.841Z,23.88
2024-02-28T05:48:53.612Z,23.42
2024-02-28T05:51:23.567Z,24.80
2024-02-28T05:53:52.226Z,23.60
2024-02-28T05:56:21.304Z,25.20
2024-02-28T05:58:49.900Z,24.05
2024-02-28T06:01:19.777Z,26.13
2024-02-28T06:03:48.370Z,24.15
2024-02-28T06:06:16.614Z,24.77
2024-02-28T06:08:46.108Z,24.35
2024-02-28T06:11:13.881Z,25.10
2024-02-28T06:13:42.789Z,24.52
2024-02-28T06:16:16.448Z,24.67
2024-02-28T06:18:44.178Z,24.55
2024-02-28T06:21:11.892Z,24.15
2024-02-28T06:23:39.561Z,23.70
2024-02-28T06:26:15.783Z,23.45
2024-02-28T06:28:46.367Z,23.48
2024-02-28T06:31:15.430Z,25.02
2024-02-28T06:33:43.087Z,23.60
2024-02-28T06:36:09.865Z,26.17
2024-02-28T06:38:37.542Z,24.73
2024-02-28T06:41:05.567Z,25.33
2024-02-28T06:43:36.965Z,24.05
2024-02-28T06:46:05.084Z,24.73
2024-02-28T06:48:32.810Z,27.23
2024-02-28T06:51:00.696Z,24.65
2024-02-28T06:53:28.360Z,26.40
2024-02-28T06:55:56.075Z,25.95
2024-02-28T06:58:25.290Z,24.75
2024-02-28T07:00:55.399Z,26.80
2024-02-28T07:03:24.199Z,26.55
2024-02-28T07:05:53.100Z,25.60
2024-02-28T07:08:22.070Z,25.55
2024-02-28T07:10:54.608Z,25.90
2024-02-28T07:13:22.513Z,24.25
2024-02-28T07:15:50.900Z,24.85
2024-02-28T07:18:19.969Z,26.42
2024-02-28T07:20:47.667Z,26.48
2024-02-28T07:23:15.443Z,24.58
2024-02-28T07:25:43.184Z,26.05
2024-02-28T07:28:10.899Z,26.25
2024-02-28T07:30:38.639Z,25.75
2024-02-28T07:33:07.359Z,26.20
2024-02-28T07:35:46.335Z,24.27
2024-02-28T07:38:14.055Z,27.90
2024-02-28T07:40:41.779Z,25.83
2024-02-28T07:43:09.460Z,26.30
2024-02-28T07:45:37.227Z,27.15
2024-02-28T07:48:05.702Z,26.23
2024-02-28T07:50:33.385Z,26.13
2024-02-28T07:53:02.401Z,26.23
2024-02-28T07:55:30.025Z,25.15
2024-02-28T07:57:57.846Z,24.70
2024-02-28T08:00:26.549Z,23.50
2024-02-28T08:02:54.296Z,24.98
2024-02-28T08:05:22.007Z,23.88
2024-02-28T08:07:49.671Z,23.65
2024-02-28T08:10:18.769Z,22.67
2024-02-28T08:12:46.489Z,21.77
2024-02-28T08:15:14.501Z,21.75
2024-02-28T08:17:42.211Z,21.85
2024-02-28T08:20:10.755Z,22.80
2024-02-28T08:22:38.473Z,22.17
2024-02-28T08:25:07.039Z,22.25
2024-02-28T08:27:36.460Z,22.83
2024-02-28T08:30:05.329Z,21.58
2024-02-28T08:32:33.031Z,20.33
2024-02-28T08:35:00.980Z,23.05
2024-02-28T08:37:29.811Z,22.35
2024-02-28T08:39:58.999Z,21.83
2024-02-28T08:42:27.098Z,22.55
2024-02-28T08:44:56.659Z,23.23
2024-02-28T08:47:25.610Z,23.05
2024-02-28T08:49:53.367Z,21.75
2024-02-28T08:52:21.119Z,22.33
2024-02-28T08:54:48.960Z,23.85
2024-02-28T08:57:17.083Z,22.50
2024-02-28T08:59:45.187Z,23.52
2024-02-28T09:02:14.223Z,23.83
2024-02-28T09:04:41.980Z,23.83
2024-02-28T09:07:09.755Z,22.92
2024-02-28T09:09:39.139Z,24.35
2024-02-28T09:12:07.703Z,23.00
2024-02-28T09:14:35.409Z,22.35
2024-02-28T09:17:04.425Z,21.48
2024-02-28T09:19:34.312Z,20.90
2024-02-28T09:22:02.406Z,21.00
2024-02-28T09:24:30.222Z,21.02
2024-02-28T09:26:57.960Z,21.35
2024-02-28T09:29:25.750Z,20.35
2024-02-28T09:31:53.996Z,21.83
2024-02-28T09:34:21.702Z,21.17
2024-02-28T09:36:51.377Z,20.38
2024-02-28T09:39:19.543Z,21.35
2024-02-28T09:41:51.190Z,21.20
2024-02-28T09:44:20.198Z,21.35
2024-02-28T09:46:50.303Z,20.40
2024-02-28T09:49:18.573Z,19.83
2024-02-28T09:51:46.758Z,20.23
2024-02-28T09:54:16.166Z,21.30
2024-02-28T09:56:43.873Z,19.67
2024-02-28T09:59:13.804Z,20.05
2024-02-28T10:01:45.784Z,20.35
2024-02-28T10:04:15.602Z,19.60
2024-02-28T10:06:43.360Z,19.75
2024-02-28T10:09:12.097Z,20.65
2024-02-28T10:11:47.945Z,19.60
2024-02-28T10:14:20.547Z,19.92
2024-02-28T10:16:48.450Z,19.08
2024-02-28T10:19:16.317Z,20.52
2024-02-28T10:21:44.508Z,19.45
2024-02-28T10:24:14.344Z,20.02
2024-02-28T10:26:49.088Z,19.77
2024-02-28T10:29:17.308Z,18.77
2024-02-28T10:31:46.861Z,18.00
2024-02-28T10:34:18.654Z,18.40
2024-02-28T10:36:47.817Z,19.73
2024-02-28T10:39:16.417Z,17.95
2024-02-28T10:41:49.896Z,19.52
2024-02-28T10:44:18.839Z,18.83
2024-02-28T10:46:46.925Z,18.30
2024-02-28T10:49:15.157Z,18.08
2024-02-28T10:51:47.908Z,16.90
2024-02-28T10:56:47.110Z,17.77
2024-02-28T10:59:14.984Z,16.75
2024-02-28T11:01:44.673Z,16.05
2024-02-28T11:04:14.028Z,15.27
2024-02-28T11:06:51.487Z,16.75
2024-02-28T11:09:24.895Z,16.80
2024-02-28T11:11:55.029Z,17.20
2024-02-28T11:14:25.870Z,16.63
2024-02-28T11:17:02.524Z,15.45
2024-02-28T11:19:31.345Z,15.82
2024-02-28T11:22:00.732Z,15.82
2024-02-28T11:24:33.042Z,15.65
2024-02-28T11:27:04.080Z,16.10
2024-02-28T11:29:32.383Z,16.20
2024-02-28T11:32:00.282Z,15.75
2024-02-28T11:34:28.242Z,15.82
2024-02-28T11:36:56.788Z,16.15
2024-02-28T11:39:26.037Z,16.52
2024-02-28T11:41:54.118Z,15.98
2024-02-28T11:44:23.275Z,16.50
2024-02-28T11:46:51.599Z,16.05
2024-02-28T11:49:20.025Z,15.25
2024-02-28T11:51:48.682Z,15.93
2024-02-28T11:54:16.418Z,15.82
2024-02-28T11:56:44.566Z,15.50
2024-02-28T11:59:14.501Z,16.05
2024-02-28T12:01:45.752Z,15.27
2024-02-28T12:04:14.088Z,16.23
2024-02-28T12:06:42.701Z,15.43
2024-02-28T12:09:13.840Z,14.98
2024-02-28T12:11:44.549Z,16.00
2024-02-28T12:14:14.941Z,16.13
2024-02-28T12:16:45.465Z,15.23
2024-02-28T12:19:16.363Z,15.43
2024-02-28T12:21:44.396Z,15.93
2024-02-28T12:24:12.804Z,15.70
2024-02-28T12:26:41.158Z,15.00
2024-02-28T12:29:10.726Z,14.85
2024-02-28T12:31:38.881Z,14.43
2024-02-28T12:34:08.058Z,14.50
2024-02-28T12:36:35.924Z,13.23
2024-02-28T12:39:03.702Z,14.23
2024-02-28T12:41:31.905Z,14.32
2024-02-28T12:43:59.577Z,12.98
2024-02-28T12:46:27.232Z,13.77
2024-02-28T12:48:55.032Z,13.45
2024-02-28T12:51:40.081Z,14.32
2024-02-28T12:54:08.689Z,13.48
2024-02-28T12:56:36.822Z,13.27
2024-02-28T12:59:04.788Z,13.80
2024-02-28T13:01:33.029Z,13.80
2024-02-28T13:04:00.950Z,14.13
2024-02-28T13:06:30.118Z,13.25
2024-02-28T13:08:57.901Z,13.05
2024-02-28T13:11:26.553Z,13.45
2024-02-28T13:13:54.850Z,13.80
2024-02-28T13:16:23.176Z,13.68
2024-02-28T13:18:50.957Z,13.65
2024-02-28T13:21:18.777Z,13.65
2024-02-28T13:23:48.393Z,12.73
2024-02-28T13:26:18.862Z,12.77
2024-02-28T13:28:50.191Z,12.60
2024-02-28T13:31:19.934Z,13.27
2024-02-28T13:33:49.604Z,13.93
2024-02-28T13:36:17.563Z,13.25
2024-02-28T13:38:45.376Z,13.73
2024-02-28T13:41:14.892Z,12.43
2024-02-28T13:43:42.587Z,12.73
2024-02-28T13:46:11.411Z,12.32
2024-02-28T13:48:39.315Z,13.10
2024-02-28T13:51:06.977Z,13.65
2024-02-28T13:53:34.696Z,12.25
2024-02-28T13:56:02.389Z,12.43
2024-02-28T13:58:39.062Z,12.88
2024-02-28T14:01:11.115Z,12.75
2024-02-28T14:03:42.558Z,12.30
2024-02-28T14:06:10.821Z,13.55
2024-02-28T14:08:38.732Z,13.43
2024-02-28T14:11:09.242Z,13.00
2024-02-28T14:13:39.058Z,13.02
2024-02-28T14:16:07.213Z,13.23
2024-02-28T14:18:37.812Z,12.75
2024-02-28T14:21:08.148Z,13.07
2024-02-28T14:23:36.531Z,12.93
2024-02-28T14:26:04.857Z,12.07
2024-02-28T14:28:32.610Z,12.73
2024-02-28T14:31:02.413Z,12.80
2024-02-28T14:33:30.352Z,11.82
2024-02-28T14:35:58.184Z,11.52
2024-02-28T14:38:25.997Z,11.00
2024-02-28T14:40:53.858Z,11.57
2024-02-28T14:43:21.549Z,11.43
2024-02-28T14:45:49.531Z,11.80
2024-02-28T14:48:18.659Z,11.30
2024-02-28T14:50:46.328Z,11.32
2024-02-28T14:53:14.015Z,10.88
2024-02-28T14:55:45.478Z,11.43
2024-02-28T14:58:13.157Z,10.65
2024-02-28T15:00:42.354Z,10.70
2024-02-28T15:03:10.806Z,10.07
2024-02-28T15:05:41.238Z,10.90
2024-02-28T15:08:08.938Z,10.57
2024-02-28T15:10:36.650Z,10.90
2024-02-28T15:13:05.271Z,11.05
2024-02-28T15:15:33.067Z,10.30
2024-02-28T15:18:02.714Z,11.15
2024-02-28T15:20:30.530Z,10.57
2024-02-28T15:23:00.463Z,10.32
2024-02-28T15:25:28.092Z,9.88
2024-02-28T15:27:56.326Z,9.82
2024-02-28T15:30:24.032Z,10.80
2024-02-28T15:32:52.036Z,9.80
2024-02-28T15:35:21.918Z,9.75
2024-02-28T15:37:49.655Z,9.50
2024-02-28T15:40:22.170Z,9.05
2024-02-28T15:42:49.937Z,8.70
2024-02-28T15:45:19.499Z,8.05
2024-02-28T15:47:47.435Z,8.07
2024-02-28T15:50:15.473Z,7.78
2024-02-28T15:52:43.118Z,8.45
2024-02-28T15:55:13.408Z,7.93
2024-02-28T15:57:42.577Z,7.43
2024-02-28T16:00:11.113Z,8.25
2024-02-28T16:02:38.794Z,8.73
2024-02-28T16:05:06.956Z,8.23
2024-02-28T16:07:34.820Z,8.57
2024-02-28T16:10:02.634Z,8.70
2024-02-28T16:12:30.442Z,7.32
2024-02-28T16:14:59.499Z,7.20
2024-02-28T16:17:27.211Z,6.97
2024-02-28T16:19:54.962Z,6.45
2024-02-28T16:22:22.869Z,5.72
2024-02-28T16:24:50.795Z,5.55
2024-02-28T16:27:18.466Z,5.57
2024-02-28T16:29:48.646Z,5.95
2024-02-28T16:32:17.871Z,5.93
2024-02-28T16:34:45.500Z,5.97
2024-02-28T16:37:13.213Z,5.20
2024-02-28T16:39:41.228Z,5.70
2024-02-28T16:42:09.427Z,5.35
2024-02-28T16:44:37.325Z,5.53
2024-02-28T16:47:05.522Z,5.13
2024-02-28T16:49:34.535Z,4.85
2024-02-28T16:52:02.314Z,5.18
2024-02-28T16:54:30.157Z,5.03
2024-02-28T16:56:57.889Z,5.18
2024-02-28T16:59:25.536Z,4.97
2024-02-28T17:01:53.263Z,5.38
2024-02-28T17:04:21.205Z,5.32
2024-02-28T17:06:51.328Z,5.32
2024-02-28T17:09:19.057Z,5.80
2024-02-28T17:11:46.764Z,5.72
2024-02-28T17:14:14.594Z,5.68
2024-02-28T17:16:42.638Z,7.38
2024-02-28T17:19:10.961Z,6.15
2024-02-28T17:21:38.801Z,6.35
2024-02-28T17:24:08.327Z,6.07
2024-02-28T17:26:38.609Z,5.97
2024-02-28T17:29:09.135Z,7.18
2024-02-28T17:31:37.073Z,6.57
2024-02-28T17:34:04.867Z,6.55
2024-02-28T17:36:32.721Z,6.45
2024-02-28T17:39:00.584Z,6.50
2024-02-28T17:41:29.995Z,6.53
2024-02-28T17:43:57.763Z,6.90
2024-02-28T17:46:25.490Z,6.13
2024-02-28T17:48:53.340Z,6.15
2024-02-28T17:51:21.125Z,6.22
2024-02-28T17:53:48.912Z,7.03
2024-02-28T17:56:16.707Z,6.18
2024-02-28T17:58:45.784Z,7.47
2024-02-28T18:01:13.750Z,6.07
2024-02-28T18:03:43.133Z,6.22
2024-02-28T18:06:11.054Z,8.10
2024-02-28T18:08:38.729Z,7.88
2024-02-28T18:11:06.590Z,9.52
2024-02-28T18:13:34.504Z,10.13
2024-02-28T18:16:03.622Z,9.55
2024-02-28T18:18:31.631Z,9.02
2024-02-28T18:21:00.509Z,9.13
2024-02-28T18:23:34.192Z,10.68
2024-02-28T18:26:02.902Z,7.60
2024-02-28T18:28:30.682Z,7.07
2024-02-28T18:30:58.549Z,7.03
2024-02-28T18:33:27.780Z,7.30
2024-02-28T18:35:55.510Z,6.93
2024-02-28T18:38:23.307Z,7.75
2024-02-28T18:40:51.174Z,8.57
2024-02-28T18:43:19.222Z,8.10
2024-02-28T18:45:47.441Z,7.78
2024-02-28T18:48:15.414Z,8.30
2024-02-28T18:50:44.434Z,8.18
2024-02-28T18:53:13.165Z,8.52
2024-02-28T18:55:40.874Z,8.80
2024-02-28T18:58:08.637Z,7.55
2024-02-28T19:00:36.793Z,7.38
2024-02-28T19:03:05.161Z,6.68
2024-02-28T19:05:32.902Z,6.90
2024-02-28T19:08:02.808Z,7.03
2024-02-28T19:10:32.876Z,7.18
2024-02-28T19:13:00.820Z,7.28
2024-02-28T19:15:28.882Z,6.90
2024-02-28T19:17:56.854Z,6.90
2024-02-28T19:20:24.978Z,6.53
2024-02-28T19:22:52.746Z,7.13
2024-02-28T19:25:22.167Z,7.40
2024-02-28T19:27:54.816Z,7.53
2024-02-28T19:30:22.730Z,8.32
2024-02-28T19:32:52.748Z,8.38
2024-02-28T19:35:20.695Z,9.07
2024-02-28T19:37:48.714Z,9.85
2024-02-28T19:40:17.022Z,9.27
2024-02-28T19:42:46.597Z,8.73
2024-02-28T19:45:14.581Z,8.98
2024-02-28T19:47:42.546Z,8.23
2024-02-28T19:50:11.183Z,7.70
2024-02-28T19:52:39.789Z,9.15
2024-02-28T19:55:08.506Z,7.85
2024-02-28T19:57:36.581Z,9.10
2024-02-28T20:00:11.325Z,8.98
2024-02-28T20:02:40.208Z,9.35
2024-02-28T20:05:10.792Z,17.17
2024-02-28T20:07:39.100Z,21.83
2024-02-28T20:10:09.069Z,17.88
2024-02-28T20:12:36.969Z,17.50
2024-02-28T20:15:07.394Z,15.15
2024-02-28T20:17:35.507Z,11.85
2024-02-28T20:20:04.190Z,11.82
2024-02-28T20:22:32.026Z,10.50
2024-02-28T20:24:59.848Z,10.30
2024-02-28T20:27:27.725Z,9.45
2024-02-28T20:29:55.629Z,9.50
2024-02-28T20:32:25.351Z,13.18
2024-02-28T20:34:53.177Z,14.25
2024-02-28T20:37:22.656Z,9.85
2024-02-28T20:39:51.052Z,14.32
2024-02-28T20:42:18.854Z,47.88
2024-02-28T20:44:47.235Z,75.28
2024-02-28T20:47:15.529Z,31.77
2024-02-28T20:49:44.773Z,10.82
2024-02-28T20:52:15.117Z,11.77
2024-02-28T20:54:47.108Z,10.20
2024-02-28T20:57:17.224Z,9.73
2024-02-28T20:59:45.711Z,10.38
2024-02-28T21:02:15.470Z,10.98
2024-02-28T21:04:45.566Z,10.93
2024-02-28T21:07:14.339Z,11.10
2024-02-28T21:09:42.939Z,11.13
2024-02-28T21:12:14.293Z,9.05
2024-02-28T21:14:43.351Z,8.90
2024-02-28T21:17:11.300Z,9.68
2024-02-28T21:19:39.162Z,9.93
2024-02-28T21:22:08.425Z,9.75
2024-02-28T21:24:36.651Z,9.40
2024-02-28T21:27:06.691Z,11.52
2024-02-28T21:29:34.877Z,19.13
2024-02-28T21:32:02.984Z,21.73
2024-02-28T21:34:31.203Z,13.65
2024-02-28T21:36:59.220Z,28.58
2024-02-28T21:39:28.573Z,27.67
2024-02-28T21:41:57.236Z,17.42
2024-02-28T21:44:26.584Z,9.27
2024-02-28T21:46:54.467Z,8.75
2024-02-28T21:49:22.425Z,9.50
2024-02-28T21:51:50.308Z,9.77
2024-02-28T21:54:18.825Z,11.05
2024-02-28T21:56:48.089Z,9.05
2024-02-28T21:59:15.905Z,9.40
2024-02-28T22:01:43.780Z,9.07
2024-02-28T22:04:11.978Z,23.20
2024-02-28T22:06:40.171Z,12.75
2024-02-28T22:09:07.955Z,14.50
2024-02-28T22:11:35.721Z,15.40
2024-02-28T22:14:06.134Z,17.40
2024-02-28T22:16:34.161Z,17.85
2024-02-28T22:19:02.772Z,10.82
2024-02-28T22:21:30.710Z,10.15
2024-02-28T22:23:58.915Z,10.98
2024-02-28T22:26:26.978Z,11.25
2024-02-28T22:28:54.806Z,10.52
2024-02-28T22:31:24.565Z,11.75
2024-02-28T22:33:52.436Z,11.23
2024-02-28T22:36:20.448Z,11.30
2024-02-28T22:38:50.657Z,10.90
2024-02-28T22:41:23.634Z,11.73
2024-02-28T22:43:51.767Z,11.88
2024-02-28T22:46:21.226Z,11.35
2024-02-28T22:48:50.548Z,10.80
2024-02-28T22:51:18.594Z,11.10
2024-02-28T22:53:47.512Z,11.90
2024-02-28T22:56:15.813Z,11.13
2024-02-28T22:58:43.615Z,11.70
2024-02-28T23:01:11.697Z,11.15
2024-02-28T23:03:39.834Z,12.10
2024-02-28T23:06:09.249Z,11.20
2024-02-28T23:08:37.026Z,11.02
2024-02-28T23:11:05.114Z,11.65
2024-02-28T23:13:33.204Z,12.48
2024-02-28T23:16:01.132Z,12.18
2024-02-28T23:18:28.999Z,11.07
2024-02-28T23:20:56.905Z,12.10
2024-02-28T23:23:26.292Z,12.07
2024-02-28T23:25:54.554Z,11.82
2024-02-28T23:28:22.431Z,10.65
2024-02-28T23:30:50.354Z,9.25
2024-02-28T23:33:18.185Z,9.45
2024-02-28T23:35:46.466Z,9.13
2024-02-28T23:38:14.322Z,8.77
2024-02-28T23:40:43.475Z,8.98
2024-02-28T23:43:11.288Z,8.98
2024-02-28T23:45:39.238Z,9.35
2024-02-28T23:48:07.785Z,9.18
2024-02-28T23:50:35.707Z,8.80
2024-02-28T23:53:03.575Z,9.05
2024-02-28T23:55:31.385Z,8.93
2024-02-28T23:58:00.571Z,9.88
